Time;durP1;ratioP1;P1;durP2;ratioP2;P2;SDS_P1;SDS_P2;PMS_P1;PMS_P2;Temp;Humidity;BMP_temperature;BMP_pressure;BME280_temperature;BME280_humidity;BME280_pressure;Samples;Min_cycle;Max_cycle;Signal;HPM_P1;HPM_P2
2022/07/14 00:00:38;;;;;;;10.98;1.30;;;14.30;99.90;;;;;;5091582;27;20051;-89
2022/07/14 00:03:03;;;;;;;10.75;1.60;;;14.30;99.90;;;;;;5076038;27;20047;-89
2022/07/14 00:05:29;;;;;;;9.05;1.58;;;14.20;99.90;;;;;;5108158;27;20496;-89
2022/07/14 00:07:55;;;;;;;10.73;1.65;;;14.30;99.90;;;;;;5059153;27;20478;-89
2022/07/14 00:10:21;;;;;;;10.82;1.70;;;14.30;99.90;;;;;;5075451;27;20047;-89
2022/07/14 00:12:47;;;;;;;7.20;1.60;;;14.20;99.90;;;;;;5091274;27;20042;-89
2022/07/14 00:15:13;;;;;;;6.40;1.45;;;14.30;99.90;;;;;;5075490;27;20406;-90
2022/07/14 00:17:38;;;;;;;7.72;1.92;;;14.20;99.90;;;;;;5056684;27;20058;-89
2022/07/14 00:20:04;;;;;;;4.10;1.13;;;14.60;99.90;;;;;;5092197;27;20131;-89
2022/07/14 00:22:32;;;;;;;5.78;1.35;;;14.20;99.90;;;;;;5107745;27;20042;-89
2022/07/14 00:24:58;;;;;;;6.38;1.33;;;14.20;99.90;;;;;;5092569;27;20039;-88
2022/07/14 00:27:23;;;;;;;4.72;1.40;;;14.10;99.90;;;;;;5108483;27;20065;-88
2022/07/14 00:29:49;;;;;;;4.35;0.98;;;14.10;99.90;;;;;;5091088;27;20062;-89
2022/07/14 00:32:15;;;;;;;7.50;1.23;;;14.10;99.90;;;;;;5058602;27;20373;-89
2022/07/14 00:34:41;;;;;;;7.95;2.00;;;14.10;99.90;;;;;;5073584;27;20043;-89
2022/07/14 00:37:06;;;;;;;6.45;1.27;;;14.10;99.90;;;;;;5092014;27;20711;-89
2022/07/14 00:39:54;;;;;;;7.70;1.15;;;15.30;99.90;;;;;;5107696;27;20096;-89
2022/07/14 00:42:32;;;;;;;6.68;0.80;;;14.10;99.90;;;;;;5108589;27;20047;-89
2022/07/14 00:45:00;;;;;;;8.40;1.30;;;14.10;99.90;;;;;;5092626;27;20096;-89
2022/07/14 00:47:29;;;;;;;5.80;1.48;;;14.10;99.90;;;;;;5090670;27;20035;-89
2022/07/14 00:49:55;;;;;;;8.35;1.35;;;14.10;99.90;;;;;;5092961;27;20062;-88
2022/07/14 00:52:23;;;;;;;10.35;1.05;;;14.10;99.90;;;;;;5091303;27;20524;-89
2022/07/14 00:54:49;;;;;;;13.82;2.17;;;14.40;99.90;;;;;;5120652;27;20057;-89
2022/07/14 00:57:15;;;;;;;8.50;1.13;;;14.50;99.90;;;;;;5130294;27;20106;-90
2022/07/14 00:59:41;;;;;;;3.28;0.88;;;14.30;99.90;;;;;;5109817;27;20039;-89
2022/07/14 01:02:06;;;;;;;7.65;1.10;;;13.90;99.90;;;;;;5075975;27;20041;-89
2022/07/14 01:04:37;;;;;;;4.85;0.93;;;13.90;99.90;;;;;;5106455;27;20400;-89
2022/07/14 01:07:06;;;;;;;6.15;1.45;;;13.90;99.90;;;;;;5091965;27;20047;-89
2022/07/14 01:09:32;;;;;;;7.53;1.77;;;13.90;99.90;;;;;;5056503;27;20125;-89
2022/07/14 01:11:59;;;;;;;4.95;1.10;;;13.90;99.90;;;;;;5074857;27;20051;-89
2022/07/14 01:14:25;;;;;;;9.40;1.27;;;13.90;99.90;;;;;;5074227;27;20493;-89
2022/07/14 01:16:55;;;;;;;9.07;1.90;;;13.90;99.90;;;;;;5090579;28;20060;-89
2022/07/14 01:19:22;;;;;;;10.27;1.75;;;14.20;99.90;;;;;;5092020;27;20486;-88
2022/07/14 01:21:52;;;;;;;6.38;1.55;;;14.00;99.90;;;;;;5089711;27;20576;-89
2022/07/14 01:24:18;;;;;;;6.10;0.90;;;14.00;99.90;;;;;;5092885;27;20058;-88
2022/07/14 01:26:44;;;;;;;8.50;1.60;;;14.10;99.90;;;;;;5081103;28;20085;-89
2022/07/14 01:29:09;;;;;;;4.95;1.17;;;14.10;99.90;;;;;;5082419;27;20047;-88
2022/07/14 01:31:35;;;;;;;9.48;1.45;;;14.10;99.90;;;;;;5098595;28;20047;-88
2022/07/14 01:34:01;;;;;;;8.38;2.05;;;14.10;99.90;;;;;;5113939;28;20039;-89
2022/07/14 01:36:27;;;;;;;5.65;1.20;;;14.10;99.90;;;;;;5081459;28;20129;-90
2022/07/14 01:38:52;;;;;;;5.57;1.38;;;14.10;99.90;;;;;;5060622;28;20409;-89
2022/07/14 01:41:20;;;;;;;7.35;1.77;;;14.40;99.90;;;;;;5095024;28;20043;-90
2022/07/14 01:43:46;;;;;;;4.93;1.23;;;14.10;99.90;;;;;;5073742;28;20035;-89
2022/07/14 01:46:12;;;;;;;7.75;1.50;;;14.10;99.90;;;;;;5091741;28;20379;-89
2022/07/14 01:48:38;;;;;;;4.38;1.50;;;14.00;99.90;;;;;;5073557;28;20046;-89
2022/07/14 01:51:04;;;;;;;5.38;1.20;;;14.00;99.90;;;;;;5090325;28;20074;-89
2022/07/14 01:53:29;;;;;;;6.28;1.48;;;14.00;99.90;;;;;;5108437;28;20054;-89
2022/07/14 01:55:55;;;;;;;7.00;1.30;;;13.20;99.90;;;;;;5072621;28;20047;-89
2022/07/14 01:58:21;;;;;;;8.43;1.40;;;13.90;99.90;;;;;;5108375;28;20482;-88
2022/07/14 02:01:39;;;;;;;2.90;1.08;;;13.90;99.90;;;;;;5055853;28;20119;-88
2022/07/14 02:03:32;;;;;;;10.85;1.58;;;13.90;99.90;;;;;;5079355;28;20039;-89
2022/07/14 02:05:58;;;;;;;5.97;1.13;;;13.80;99.90;;;;;;5073448;28;20050;-89
2022/07/14 02:08:23;;;;;;;8.18;1.30;;;13.80;99.90;;;;;;5072848;28;20072;-88
2022/07/14 02:13:33;;;;;;;5.97;1.45;;;14.20;99.90;;;;;;5077048;28;20043;-89
2022/07/14 02:15:59;;;;;;;3.22;0.90;;;13.60;99.90;;;;;;5074248;28;20039;-89
2022/07/14 02:18:24;;;;;;;7.22;1.40;;;13.60;99.90;;;;;;5089455;28;20055;-89
2022/07/14 02:20:50;;;;;;;6.07;1.33;;;14.70;99.90;;;;;;5073313;28;20039;-89
2022/07/14 02:23:16;;;;;;;7.28;1.50;;;13.50;99.90;;;;;;5094803;27;20066;-89
2022/07/14 02:25:42;;;;;;;7.00;2.15;;;13.40;99.90;;;;;;5076070;27;20490;-89
2022/07/14 02:28:07;;;;;;;4.47;1.33;;;14.50;99.90;;;;;;5094909;27;20054;-89
2022/07/14 02:30:33;;;;;;;11.68;1.98;;;13.70;99.90;;;;;;5088642;28;20051;-88
2022/07/14 02:32:59;;;;;;;8.00;1.48;;;12.70;99.90;;;;;;5091132;28;20744;-89
2022/07/14 02:35:24;;;;;;;6.85;1.70;;;13.40;99.90;;;;;;5089502;28;20044;-89
2022/07/14 02:37:50;;;;;;;9.15;1.33;;;13.30;99.90;;;;;;5057278;28;20079;-89
2022/07/14 02:40:16;;;;;;;7.95;1.40;;;13.30;99.90;;;;;;5057226;28;20043;-88
2022/07/14 02:42:43;;;;;;;10.73;1.77;;;13.30;99.90;;;;;;5107257;28;20044;-90
2022/07/14 02:45:09;;;;;;;10.77;1.92;;;13.60;99.90;;;;;;5091480;28;20411;-89
2022/07/14 02:47:35;;;;;;;8.70;1.70;;;13.30;99.90;;;;;;5106588;28;20044;-89
2022/07/14 02:50:01;;;;;;;7.38;1.80;;;14.30;99.90;;;;;;5076940;28;20085;-89
2022/07/14 02:52:27;;;;;;;10.98;2.35;;;13.30;99.90;;;;;;5068272;28;20036;-88
2022/07/14 02:54:52;;;;;;;5.63;1.45;;;14.00;99.90;;;;;;5084903;28;20059;-89
2022/07/14 02:57:18;;;;;;;9.90;1.65;;;13.20;99.90;;;;;;5056871;28;20127;-89
2022/07/14 02:59:44;;;;;;;13.45;1.85;;;13.20;99.90;;;;;;5056912;28;20048;-89
2022/07/14 03:02:09;;;;;;;9.45;1.73;;;13.30;99.90;;;;;;5094430;28;20098;-87
2022/07/14 03:04:36;;;;;;;3.17;1.35;;;13.50;99.90;;;;;;5090559;28;20070;-88
2022/07/14 03:07:04;;;;;;;5.68;1.75;;;13.50;99.90;;;;;;5098048;28;20070;-89
2022/07/14 03:09:30;;;;;;;8.65;1.27;;;12.90;99.90;;;;;;5112049;28;20044;-88
2022/07/14 03:11:56;;;;;;;7.65;1.45;;;13.10;99.90;;;;;;5080639;28;20077;-88
2022/07/14 03:14:22;;;;;;;6.55;1.55;;;13.10;99.90;;;;;;5080087;28;20047;-89
2022/07/14 03:16:48;;;;;;;10.32;1.75;;;13.80;99.90;;;;;;5077439;28;20076;-89
2022/07/14 03:19:13;;;;;;;6.35;1.75;;;13.00;99.90;;;;;;5110236;28;20074;-89
2022/07/14 03:21:39;;;;;;;9.50;1.30;;;13.00;99.90;;;;;;5073715;28;20576;-88
2022/07/14 03:24:06;;;;;;;6.50;1.90;;;13.00;99.90;;;;;;5057455;28;20109;-88
2022/07/14 03:26:32;;;;;;;4.65;1.00;;;13.00;99.90;;;;;;5090134;28;20448;-88
2022/07/14 03:28:58;;;;;;;3.65;1.33;;;13.00;99.90;;;;;;5076196;28;20051;-88
2022/07/14 03:31:25;;;;;;;5.45;1.50;;;13.40;99.90;;;;;;5074705;28;20436;-88
2022/07/14 03:33:50;;;;;;;4.28;1.33;;;13.00;99.90;;;;;;5073849;28;20083;-88
2022/07/14 03:36:18;;;;;;;4.78;1.30;;;13.00;99.90;;;;;;5074370;28;20540;-87
2022/07/14 03:38:44;;;;;;;7.10;1.10;;;13.60;99.90;;;;;;5105655;28;20566;-87
2022/07/14 03:41:10;;;;;;;5.63;1.25;;;12.90;99.90;;;;;;5091242;28;20079;-89
2022/07/14 03:43:35;;;;;;;9.65;1.38;;;13.00;99.90;;;;;;5055682;28;20044;-87
2022/07/14 03:46:02;;;;;;;5.18;1.00;;;12.90;99.90;;;;;;5057855;28;20067;-88
2022/07/14 03:48:27;;;;;;;4.45;1.10;;;13.50;99.90;;;;;;5106836;28;20470;-88
2022/07/14 03:50:53;;;;;;;4.38;1.10;;;12.90;99.90;;;;;;5090276;28;20249;-88
2022/07/14 03:53:19;;;;;;;5.22;0.98;;;12.90;99.90;;;;;;5073320;28;20062;-88
2022/07/14 03:55:45;;;;;;;4.85;0.88;;;13.30;99.90;;;;;;5071314;28;20047;-88
2022/07/14 03:58:11;;;;;;;5.75;1.48;;;13.70;99.90;;;;;;5089506;28;20035;-88
2022/07/14 04:00:37;;;;;;;2.85;1.05;;;12.90;99.90;;;;;;5104288;28;20089;-88
2022/07/14 04:03:03;;;;;;;4.82;1.20;;;13.00;99.90;;;;;;5056200;28;20039;-88
2022/07/14 04:05:28;;;;;;;5.18;1.98;;;12.90;99.90;;;;;;5088162;28;20098;-88
2022/07/14 04:07:54;;;;;;;9.70;1.00;;;12.90;99.90;;;;;;5056196;28;20042;-88
2022/07/14 04:10:20;;;;;;;6.18;1.48;;;12.90;99.90;;;;;;5072752;28;20132;-88
2022/07/14 04:12:46;;;;;;;4.20;1.15;;;12.90;99.90;;;;;;5054484;28;20131;-87
2022/07/14 04:15:12;;;;;;;1.73;0.90;;;12.90;99.90;;;;;;5055813;28;20043;-87
2022/07/14 04:17:38;;;;;;;5.97;1.00;;;12.90;99.90;;;;;;5087365;28;20050;-88
2022/07/14 04:20:04;;;;;;;4.50;1.00;;;12.80;99.90;;;;;;5072121;28;20040;-87
2022/07/14 04:22:30;;;;;;;7.38;1.25;;;12.90;99.90;;;;;;5104291;28;20127;-88
2022/07/14 04:24:57;;;;;;;7.78;1.70;;;12.80;99.90;;;;;;5055507;28;20155;-88
2022/07/14 04:27:23;;;;;;;7.30;1.67;;;13.20;99.90;;;;;;5054889;28;20056;-87
2022/07/14 04:29:49;;;;;;;6.68;1.13;;;12.90;99.90;;;;;;5070570;28;20047;-87
2022/07/14 04:32:15;;;;;;;3.25;0.68;;;13.00;99.90;;;;;;5055861;28;20463;-88
2022/07/14 04:34:41;;;;;;;3.92;0.98;;;13.10;99.90;;;;;;5053888;28;20092;-88
2022/07/14 04:37:06;;;;;;;6.85;1.08;;;14.10;99.90;;;;;;5089217;28;20028;-89
2022/07/14 04:39:32;;;;;;;9.05;1.27;;;13.20;99.90;;;;;;5053582;28;20112;-88
2022/07/14 04:41:58;;;;;;;2.70;0.82;;;13.30;99.90;;;;;;5105918;28;20443;-88
2022/07/14 04:44:23;;;;;;;14.02;0.95;;;13.40;99.90;;;;;;5071312;28;20404;-88
2022/07/14 04:46:49;;;;;;;5.28;0.75;;;13.70;99.90;;;;;;5062236;28;20036;-89
2022/07/14 04:52:01;;;;;;;6.97;1.08;;;13.70;99.90;;;;;;5090109;28;20185;-87
2022/07/14 04:54:31;;;;;;;4.88;0.70;;;14.70;99.90;;;;;;5072386;28;20043;-86
2022/07/14 04:56:57;;;;;;;6.70;0.80;;;14.00;99.90;;;;;;5070849;28;20438;-85
2022/07/14 04:59:23;;;;;;;2.88;0.60;;;14.10;99.90;;;;;;5104692;28;20543;-85
2022/07/14 05:01:49;;;;;;;3.65;0.68;;;14.30;99.90;;;;;;5087719;28;20043;-85
2022/07/14 05:04:14;;;;;;;5.78;0.68;;;14.40;99.90;;;;;;5103155;28;20150;-88
2022/07/14 05:06:40;;;;;;;4.72;0.68;;;14.50;99.90;;;;;;5071488;28;20043;-87
2022/07/14 05:09:06;;;;;;;7.75;0.98;;;14.70;99.90;;;;;;5085528;28;20036;-86
2022/07/14 05:11:32;;;;;;;10.23;1.08;;;15.20;99.90;;;;;;5054660;28;20130;-89
2022/07/14 05:13:57;;;;;;;3.13;0.73;;;14.90;99.90;;;;;;5069973;28;20044;-87
2022/07/14 05:16:23;;;;;;;7.00;0.88;;;15.50;99.90;;;;;;5071228;28;20434;-87
2022/07/14 05:18:49;;;;;;;5.55;0.82;;;15.30;99.90;;;;;;5070721;28;20096;-90
2022/07/14 05:21:15;;;;;;;2.45;0.80;;;15.50;99.90;;;;;;5087371;28;20071;-90
2022/07/14 05:23:41;;;;;;;7.68;1.02;;;15.40;99.90;;;;;;5088233;28;20040;-89
2022/07/14 05:26:14;;;;;;;2.42;0.90;;;15.50;99.90;;;;;;5085844;28;20563;-87
2022/07/14 05:28:40;;;;;;;2.97;0.65;;;15.40;99.90;;;;;;5071176;28;20581;-85
2022/07/14 05:31:06;;;;;;;2.88;0.50;;;15.50;99.90;;;;;;5086194;28;20051;-88
2022/07/14 05:33:32;;;;;;;3.42;0.70;;;15.40;99.90;;;;;;5087695;28;20039;-88
2022/07/14 05:35:58;;;;;;;7.45;0.73;;;15.50;99.90;;;;;;5104191;28;20483;-89
2022/07/14 05:38:24;;;;;;;2.20;0.68;;;15.50;99.90;;;;;;5070907;28;20047;-91
2022/07/14 05:40:50;;;;;;;3.80;0.60;;;15.60;99.90;;;;;;5105621;28;20140;-88
2022/07/14 05:43:16;;;;;;;6.55;0.88;;;15.60;99.90;;;;;;5069802;28;20506;-90
2022/07/14 05:45:42;;;;;;;9.05;0.77;;;15.90;99.90;;;;;;5088148;28;20051;-86
2022/07/14 05:48:08;;;;;;;5.10;1.00;;;15.80;99.90;;;;;;5053297;28;20036;-89
2022/07/14 05:50:33;;;;;;;2.65;0.98;;;15.50;99.90;;;;;;5054417;28;20050;-88
2022/07/14 05:52:59;;;;;;;3.47;0.65;;;15.90;99.90;;;;;;5054291;28;20086;-90
2022/07/14 05:55:25;;;;;;;4.47;0.90;;;15.60;99.90;;;;;;5071446;28;20032;-91
2022/07/14 05:57:51;;;;;;;5.38;0.68;;;15.70;99.90;;;;;;5075665;28;20040;-93
2022/07/14 06:00:17;;;;;;;9.57;0.82;;;15.80;99.90;;;;;;5057599;28;20085;-91
2022/07/14 06:02:43;;;;;;;6.78;0.93;;;15.90;99.90;;;;;;5093116;28;20079;-88
2022/07/14 06:05:10;;;;;;;7.18;1.08;;;16.00;99.90;;;;;;5106916;28;20495;-89
2022/07/14 06:07:39;;;;;;;4.43;0.70;;;16.10;99.90;;;;;;5092120;28;20035;-90
2022/07/14 06:10:05;;;;;;;8.23;0.88;;;16.20;99.90;;;;;;5057226;28;20516;-90
2022/07/14 06:12:32;;;;;;;8.13;0.68;;;16.30;99.90;;;;;;5073746;28;20259;-89
2022/07/14 06:14:58;;;;;;;2.28;0.45;;;16.50;99.90;;;;;;5074860;28;20040;-89
2022/07/14 06:17:24;;;;;;;4.90;0.60;;;16.60;99.90;;;;;;5056340;28;20039;-90
2022/07/14 06:19:49;;;;;;;6.88;0.60;;;16.80;99.90;;;;;;5075281;28;20130;-89
2022/07/14 06:22:18;;;;;;;5.80;0.80;;;17.10;99.90;;;;;;5056476;28;20054;-89
2022/07/14 06:24:44;;;;;;;8.30;0.90;;;17.10;99.90;;;;;;5058303;28;20051;-90
2022/07/14 06:27:10;;;;;;;3.60;0.52;;;17.10;99.90;;;;;;5073471;28;20421;-91
2022/07/14 06:29:35;;;;;;;5.68;0.65;;;17.20;99.90;;;;;;5091028;28;20052;-91
2022/07/14 06:32:03;;;;;;;10.20;1.00;;;17.20;99.90;;;;;;5059254;28;20146;-91
2022/07/14 06:34:29;;;;;;;6.82;0.90;;;17.20;99.90;;;;;;5091434;28;20528;-90
2022/07/14 06:36:55;;;;;;;3.65;0.50;;;17.30;99.90;;;;;;5077367;28;20047;-90
2022/07/14 06:39:20;;;;;;;5.78;0.90;;;17.30;99.90;;;;;;5078004;28;20065;-91
2022/07/14 06:41:46;;;;;;;3.85;0.50;;;17.40;99.90;;;;;;5069724;28;20077;-90
2022/07/14 06:44:13;;;;;;;4.00;0.82;;;17.50;99.90;;;;;;5094901;28;20043;-90
2022/07/14 06:46:39;;;;;;;6.40;0.40;;;17.60;99.90;;;;;;5083502;28;20054;-93
2022/07/14 06:49:05;;;;;;;7.95;0.63;;;17.60;99.90;;;;;;5098847;28;20040;-90
2022/07/14 06:51:31;;;;;;;1.95;0.30;;;17.60;99.90;;;;;;5078464;28;20134;-89
2022/07/14 06:53:57;;;;;;;1.95;0.80;;;17.70;99.90;;;;;;5061512;28;20046;-90
2022/07/14 06:56:22;;;;;;;4.22;0.60;;;17.90;99.90;;;;;;5077092;28;20103;-91
2022/07/14 06:58:48;;;;;;;5.00;0.82;;;17.90;99.90;;;;;;5077710;28;20044;-92
2022/07/14 07:01:14;;;;;;;4.20;0.65;;;17.90;99.90;;;;;;5057429;28;20074;-92
2022/07/14 07:03:39;;;;;;;2.92;0.40;;;17.70;99.90;;;;;;5058158;28;20547;-91
2022/07/14 07:08:51;;;;;;;3.20;0.60;;;18.10;99.90;;;;;;5091745;28;20048;-91
2022/07/14 07:11:17;;;;;;;4.43;0.25;;;18.30;99.90;;;;;;5058636;28;20108;-89
2022/07/14 07:13:45;;;;;;;5.15;0.50;;;18.40;99.90;;;;;;5072890;28;20077;-92
2022/07/14 07:16:11;;;;;;;3.00;0.28;;;18.50;99.90;;;;;;5075209;28;20100;-90
2022/07/14 07:18:37;;;;;;;2.35;0.60;;;18.70;99.90;;;;;;5089628;28;20036;-90
2022/07/14 07:21:04;;;;;;;3.30;0.47;;;19.40;99.90;;;;;;5061811;28;20055;-91
2022/07/14 07:23:30;;;;;;;2.13;0.55;;;19.60;99.90;;;;;;5095355;28;20044;-93
2022/07/14 07:25:56;;;;;;;2.25;0.25;;;19.30;99.90;;;;;;5059639;28;20107;-91
2022/07/14 07:28:22;;;;;;;4.78;0.52;;;19.40;99.90;;;;;;5080550;27;20103;-93
2022/07/14 07:30:48;;;;;;;5.57;0.45;;;19.50;99.90;;;;;;5060114;27;20043;-94
2022/07/14 07:33:14;;;;;;;1.85;0.40;;;19.40;99.90;;;;;;5078165;27;20042;-91
2022/07/14 07:35:42;;;;;;;4.88;0.50;;;19.30;99.90;;;;;;5076388;27;20109;-92
2022/07/14 07:38:08;;;;;;;1.92;0.30;;;19.30;99.90;;;;;;5060752;27;20043;-91
2022/07/14 07:40:34;;;;;;;3.22;0.63;;;19.30;99.90;;;;;;5060720;27;20046;-91
2022/07/14 07:43:00;;;;;;;2.63;0.20;;;19.50;99.90;;;;;;5058940;27;20061;-91
2022/07/14 07:45:26;;;;;;;1.02;0.20;;;19.60;99.90;;;;;;5077649;27;20035;-90
2022/07/14 07:47:52;;;;;;;2.47;0.40;;;19.60;99.90;;;;;;5074876;27;20041;-92
2022/07/14 07:50:17;;;;;;;2.10;0.40;;;19.60;99.90;;;;;;5077789;27;20039;-92
2022/07/14 07:52:43;;;;;;;4.22;0.55;;;19.50;99.90;;;;;;5075210;27;20043;-91
2022/07/14 07:55:10;;;;;;;2.40;0.30;;;19.60;99.90;;;;;;5093911;27;20410;-90
2022/07/14 07:57:37;;;;;;;3.40;0.28;;;19.70;99.90;;;;;;5076714;27;20046;-88
2022/07/14 08:00:09;;;;;;;1.15;0.20;;;19.80;99.90;;;;;;5091430;27;20050;-88
2022/07/14 08:02:43;;;;;;;1.67;0.40;;;19.90;99.90;;;;;;5094052;27;20078;-91
2022/07/14 08:05:08;;;;;;;4.03;0.20;;;20.00;99.90;;;;;;5075394;27;20501;-88
2022/07/14 08:07:34;;;;;;;3.50;0.30;;;20.20;99.90;;;;;;5109975;27;20047;-88
2022/07/14 08:10:00;;;;;;;0.63;0.22;;;20.30;99.90;;;;;;5058155;27;20038;-91
2022/07/14 08:12:25;;;;;;;3.72;0.47;;;20.40;99.90;;;;;;5091816;27;20480;-90
2022/07/14 08:14:54;;;;;;;1.05;0.20;;;20.60;99.90;;;;;;5092423;27;20291;-89
2022/07/14 08:17:21;;;;;;;2.47;0.20;;;20.60;99.90;;;;;;5057640;27;20036;-90
2022/07/14 08:19:49;;;;;;;2.90;0.35;;;20.60;99.90;;;;;;5110077;27;20050;-88
2022/07/14 08:22:20;;;;;;;2.10;0.60;;;20.60;99.90;;;;;;5091150;27;20035;-90
2022/07/14 08:24:46;;;;;;;1.13;0.30;;;20.60;99.90;;;;;;5076415;27;20644;-89
2022/07/14 08:27:12;;;;;;;0.88;0.15;;;20.50;99.90;;;;;;5074667;27;20042;-91
2022/07/14 08:29:37;;;;;;;2.55;0.47;;;20.50;99.90;;;;;;5091522;27;20134;-90
2022/07/14 08:32:05;;;;;;;4.28;0.20;;;20.60;99.90;;;;;;5059284;27;20046;-91
2022/07/14 08:34:30;;;;;;;2.25;0.55;;;20.80;99.90;;;;;;5057585;27;20546;-89
2022/07/14 08:36:58;;;;;;;4.57;0.60;;;21.10;99.90;;;;;;5077037;27;20043;-91
2022/07/14 08:39:24;;;;;;;2.95;0.30;;;21.00;99.90;;;;;;5078251;27;20075;-90
2022/07/14 08:41:54;;;;;;;2.50;0.40;;;21.10;99.90;;;;;;5071141;27;20039;-91
2022/07/14 08:44:20;;;;;;;2.25;0.30;;;21.10;99.90;;;;;;5092416;27;20039;-89
2022/07/14 08:46:47;;;;;;;5.28;0.80;;;21.20;99.90;;;;;;5074825;27;20043;-90
2022/07/14 08:49:14;;;;;;;4.18;0.30;;;21.20;99.90;;;;;;5075602;27;20123;-90
2022/07/14 08:51:42;;;;;;;1.75;0.30;;;21.20;99.90;;;;;;5073481;27;20501;-89
2022/07/14 08:54:10;;;;;;;4.07;0.45;;;21.20;99.90;;;;;;5092528;27;20063;-90
2022/07/14 08:56:42;;;;;;;2.58;0.65;;;21.00;99.90;;;;;;5089973;27;20035;-91
2022/07/14 08:59:09;;;;;;;3.50;0.60;;;20.80;99.90;;;;;;5092248;27;20368;-90
2022/07/14 09:01:36;;;;;;;2.28;0.20;;;20.70;99.90;;;;;;5073849;27;20493;-91
2022/07/14 09:04:02;;;;;;;2.90;0.30;;;20.70;99.90;;;;;;5073792;27;20525;-89
2022/07/14 09:06:52;;;;;;;2.35;0.22;;;20.80;99.90;;;;;;5074909;27;20043;-89
2022/07/14 09:09:24;;;;;;;1.08;0.28;;;20.90;99.90;;;;;;5089762;27;20039;-88
2022/07/14 09:12:06;;;;;;;0.80;0.13;;;21.10;99.90;;;;;;5091737;27;20574;-89
2022/07/14 09:17:25;;;;;;;2.08;0.20;;;21.10;99.90;;;;;;5106225;27;20394;-88
2022/07/14 09:20:21;;;;;;;1.85;0.30;;;21.10;99.90;;;;;;5092180;27;20043;-88
2022/07/14 09:22:47;;;;;;;2.03;0.40;;;21.10;99.90;;;;;;5069329;27;20127;-89
2022/07/14 09:25:17;;;;;;;1.25;0.32;;;21.00;99.90;;;;;;5091407;28;20530;-90
2022/07/14 09:27:45;;;;;;;2.03;0.30;;;20.90;99.90;;;;;;5108050;28;20043;-91
2022/07/14 09:30:12;;;;;;;1.55;0.30;;;20.90;99.90;;;;;;5088615;27;20052;-89
2022/07/14 09:33:01;;;;;;;3.28;0.30;;;21.00;99.90;;;;;;5091692;27;20042;-88
2022/07/14 09:35:41;;;;;;;1.55;0.40;;;21.10;99.90;;;;;;5089521;28;20047;-89
2022/07/14 09:38:22;;;;;;;4.03;0.40;;;21.10;99.90;;;;;;5091779;28;20035;-94
2022/07/14 09:40:49;;;;;;;1.50;0.20;;;21.20;99.90;;;;;;5093823;28;20169;-94
2022/07/14 09:43:16;;;;;;;4.65;0.20;;;21.30;99.90;;;;;;5075123;28;20191;-96
2022/07/14 09:45:49;;;;;;;1.42;0.35;;;21.50;99.90;;;;;;5059376;28;20126;-91
2022/07/14 09:48:17;;;;;;;2.28;0.60;;;21.70;99.90;;;;;;5106391;28;20047;-89
2022/07/14 09:50:56;;;;;;;0.57;0.10;;;22.00;99.90;;;;;;5109365;28;20156;-87
2022/07/14 09:53:25;;;;;;;0.75;0.15;;;22.10;99.90;;;;;;5126730;28;20050;-90
2022/07/14 09:56:00;;;;;;;4.05;0.82;;;22.10;99.90;;;;;;5089995;28;20043;-90
2022/07/14 09:58:31;;;;;;;1.63;0.32;;;22.00;99.90;;;;;;5091369;28;20100;-90
2022/07/14 10:01:05;;;;;;;1.23;0.23;;;22.00;99.90;;;;;;5089295;28;20043;-90
2022/07/14 10:03:33;;;;;;;2.83;0.40;;;22.10;99.90;;;;;;5091199;28;20087;-91
2022/07/14 10:06:01;;;;;;;3.03;0.28;;;22.10;99.90;;;;;;5074722;28;20035;-89
2022/07/14 10:08:29;;;;;;;2.95;0.30;;;22.10;99.90;;;;;;5073668;28;20493;-90
2022/07/14 10:10:57;;;;;;;2.38;0.20;;;22.10;99.90;;;;;;5092388;28;20043;-91
2022/07/14 10:13:24;;;;;;;2.97;0.25;;;22.10;99.90;;;;;;5073361;28;20126;-90
2022/07/14 10:15:52;;;;;;;2.40;0.40;;;22.20;99.90;;;;;;5091604;28;20047;-90
2022/07/14 10:18:19;;;;;;;0.95;0.20;;;22.30;99.50;;;;;;5090300;28;20096;-88
2022/07/14 10:20:47;;;;;;;0.77;0.30;;;22.30;99.30;;;;;;5093379;28;20050;-88
2022/07/14 10:23:13;;;;;;;2.63;0.25;;;22.30;99.40;;;;;;5094484;28;20081;-88
2022/07/14 10:25:40;;;;;;;2.58;0.30;;;22.30;99.90;;;;;;5079870;28;20047;-87
2022/07/14 10:28:06;;;;;;;2.78;0.30;;;22.40;99.90;;;;;;5098325;28;20074;-87
2022/07/14 10:30:55;;;;;;;1.48;0.40;;;22.40;99.90;;;;;;5096877;28;20075;-87
2022/07/14 10:33:35;;;;;;;3.38;0.43;;;22.40;99.60;;;;;;5100020;28;20185;-87
2022/07/14 10:36:04;;;;;;;1.33;0.20;;;22.70;99.80;;;;;;5136524;28;20082;-87
2022/07/14 10:38:30;;;;;;;2.65;0.30;;;23.00;99.50;;;;;;5120160;28;20053;-87
2022/07/14 10:41:05;;;;;;;3.72;0.35;;;23.10;98.80;;;;;;5116566;28;20134;-88
2022/07/14 10:44:03;;;;;;;2.22;0.30;;;22.90;97.90;;;;;;5098909;27;20120;-91
2022/07/14 10:46:37;;;;;;;2.92;0.40;;;22.60;96.70;;;;;;5102844;27;20081;-91
2022/07/14 10:49:07;;;;;;;4.20;0.30;;;22.20;98.80;;;;;;5100179;27;20053;-90
2022/07/14 10:51:42;;;;;;;3.30;0.32;;;22.10;99.00;;;;;;5079997;27;20409;-90
2022/07/14 10:54:10;;;;;;;3.53;0.35;;;21.90;99.60;;;;;;5097390;27;20043;-91
2022/07/14 10:56:38;;;;;;;4.85;0.40;;;21.70;99.90;;;;;;5113130;27;20410;-88
2022/07/14 10:59:26;;;;;;;1.05;0.20;;;21.70;99.90;;;;;;5096592;27;20427;-85
2022/07/14 11:02:13;;;;;;;5.43;0.50;;;21.60;99.90;;;;;;5093092;27;20093;-85
2022/07/14 11:05:01;;;;;;;1.65;0.30;;;21.50;99.60;;;;;;5091782;27;20050;-86
2022/07/14 11:07:51;;;;;;;1.42;0.28;;;21.50;99.90;;;;;;5093949;27;20056;-86
2022/07/14 11:10:19;;;;;;;1.85;0.22;;;21.50;99.90;;;;;;5092202;27;20042;-86
2022/07/14 11:13:06;;;;;;;1.95;0.25;;;21.60;99.90;;;;;;5109638;27;20490;-85
2022/07/14 11:15:40;;;;;;;2.17;0.20;;;21.50;99.90;;;;;;5093445;27;20046;-85
2022/07/14 11:18:18;;;;;;;1.33;0.20;;;21.50;99.90;;;;;;5092574;27;20043;-86
2022/07/14 11:21:05;;;;;;;3.60;0.43;;;21.50;99.90;;;;;;5093450;27;20046;-86
2022/07/14 11:23:54;;;;;;;3.05;0.40;;;21.50;99.90;;;;;;5109543;27;20490;-86
2022/07/14 11:26:35;;;;;;;2.30;0.30;;;21.50;99.90;;;;;;5074537;27;20050;-86
2022/07/14 11:29:06;;;;;;;2.00;0.20;;;21.70;99.90;;;;;;5093404;27;20055;-86
2022/07/14 11:31:52;;;;;;;2.05;0.20;;;22.00;99.90;;;;;;5091383;27;20046;-92
2022/07/14 11:37:19;;;;;;;2.53;0.20;;;22.40;99.20;;;;;;5111082;27;20052;-85
2022/07/14 11:39:44;;;;;;;2.13;0.30;;;22.60;99.90;;;;;;5108559;27;20054;-86
2022/07/14 11:42:12;;;;;;;3.42;0.38;;;22.60;99.90;;;;;;5093175;27;20062;-85
2022/07/14 11:44:40;;;;;;;2.38;0.25;;;22.70;99.80;;;;;;5091745;27;20043;-85
2022/07/14 11:47:26;;;;;;;3.05;0.47;;;22.80;99.70;;;;;;5092495;27;20126;-85
2022/07/14 11:49:56;;;;;;;4.88;0.28;;;22.70;99.90;;;;;;5110619;27;20093;-85
2022/07/14 11:52:40;;;;;;;1.65;0.15;;;22.70;99.50;;;;;;5090935;27;20043;-85
2022/07/14 11:55:12;;;;;;;2.00;0.30;;;22.60;98.40;;;;;;5093215;27;20039;-85
2022/07/14 11:57:38;;;;;;;5.25;0.50;;;22.50;99.10;;;;;;5108892;27;20047;-85
2022/07/14 12:00:09;;;;;;;3.53;0.25;;;22.40;99.30;;;;;;5108448;27;20039;-85
2022/07/14 12:02:49;;;;;;;1.52;0.20;;;22.20;98.90;;;;;;5093334;27;20047;-85
2022/07/14 12:05:15;;;;;;;2.97;0.47;;;22.00;99.40;;;;;;5090776;27;20051;-84
2022/07/14 12:07:47;;;;;;;6.68;0.70;;;21.60;99.60;;;;;;5110796;27;20121;-85
2022/07/14 12:10:14;;;;;;;3.53;0.47;;;21.60;99.50;;;;;;5110640;27;20088;-85
2022/07/14 12:12:41;;;;;;;1.55;0.30;;;21.50;99.90;;;;;;5093168;27;20082;-85
2022/07/14 12:15:08;;;;;;;2.60;0.88;;;21.20;99.90;;;;;;5075825;27;20149;-85
2022/07/14 12:17:45;;;;;;;4.38;0.52;;;21.10;99.90;;;;;;5091509;27;20126;-84
2022/07/14 12:20:11;;;;;;;2.83;0.40;;;21.10;99.90;;;;;;5110030;27;20039;-85
2022/07/14 12:22:44;;;;;;;2.60;0.60;;;21.20;99.90;;;;;;5107453;27;20046;-84
2022/07/14 12:25:33;;;;;;;1.65;0.30;;;21.40;99.90;;;;;;5128509;27;20043;-85
2022/07/14 12:28:07;;;;;;;7.13;0.45;;;21.80;99.40;;;;;;5092026;27;20111;-85
2022/07/14 12:30:58;;;;;;;1.90;0.40;;;22.20;99.00;;;;;;5126092;27;20163;-84
2022/07/14 12:33:28;;;;;;;2.60;0.30;;;22.60;96.40;;;;;;5110910;27;20438;-85
2022/07/14 12:36:02;;;;;;;1.98;0.75;;;22.80;97.20;;;;;;5129690;27;20035;-85
2022/07/14 12:38:31;;;;;;;1.42;0.38;;;22.70;96.90;;;;;;5109856;27;20205;-85
2022/07/14 12:41:00;;;;;;;1.08;0.28;;;22.50;97.20;;;;;;5093097;27;20393;-85
2022/07/14 12:43:26;;;;;;;2.33;0.50;;;22.30;97.00;;;;;;5106339;27;20511;-85
2022/07/14 12:46:03;;;;;;;3.42;0.32;;;22.20;97.00;;;;;;5108941;27;20050;-85
2022/07/14 12:48:35;;;;;;;4.20;1.38;;;22.10;96.20;;;;;;5089793;27;20521;-85
2022/07/14 12:51:21;;;;;;;3.00;0.50;;;22.00;96.40;;;;;;5091472;27;20047;-85
2022/07/14 12:54:15;;;;;;;3.03;0.30;;;21.90;95.10;;;;;;5127012;27;20058;-85
2022/07/14 12:56:44;;;;;;;5.35;0.77;;;22.00;95.70;;;;;;5106311;27;20087;-85
2022/07/14 12:59:12;;;;;;;0.80;0.38;;;22.10;96.30;;;;;;5109409;27;20074;-84
2022/07/14 13:01:57;;;;;;;1.85;0.40;;;22.20;96.30;;;;;;5090018;27;20031;-85
2022/07/14 13:04:35;;;;;;;1.95;0.40;;;22.10;96.10;;;;;;5107562;27;20390;-85
2022/07/14 13:07:13;;;;;;;2.40;0.40;;;22.00;96.20;;;;;;5108387;27;20045;-85